LOWW/VIE METAR and TAF weather

Enter ICAO airport designator
Station Type Date Time Source
LOWW METAR 2022/12/04 04:50 UTC NOAA

LOWW 040450Z 13013KT 7000 FEW006 BKN007 04/03 Q1020 NOSIG


Station Type Date Time Source
LOWW Decoded METAR 2022/12/04 04:50 UTC NOAA

Wien / Schwechat-Flughafen, Austria (LOWW) 48-07N 016-34E 190M
Dec 03, 2022 - 11:50 PM EST / 2022.12.04 0450 UTC
Wind: from the SE (130 degrees) at 15 MPH (13 KT):0
Visibility: 4 mile(s):0
Sky conditions: mostly cloudy
Temperature: 39 F (4 C)
Dew Point: 37 F (3 C)
Relative Humidity: 93%
Pressure (altimeter): 30.12 in. Hg (1020 hPa)
ob: LOWW 040450Z 13013KT 7000 FEW006 BKN007 04/03 Q1020 NOSIG
cycle: 5

Station Type Date Time Source
LOWW TAF 2022/12/04 03:21 UTC NOAA

TAF LOWW 040215Z 0403/0509 14013KT 7000 BKN007 TX06/0509Z TN04/0413Z
TEMPO 0403/0406 2500 BKN004
TEMPO 0406/0420 4000 -DZ BKN012
FM050000 15015G25KT 4000 BKN004
TEMPO 0503/0508 1200 BCFG VV001

Example: see airport list